Time;durP1;ratioP1;P1;durP2;ratioP2;P2;SDS_P1;SDS_P2;PMS_P1;PMS_P2;Temp;Humidity;BMP_temperature;BMP_pressure;BME280_temperature;BME280_humidity;BME280_pressure;Samples;Min_cycle;Max_cycle;Signal;HPM_P1;HPM_P2
2023/07/26 00:01:38;;;;;;;;;;;;;;;23.03;65.29;99716.53;107534;1251;111581;-68
2023/07/26 00:04:07;;;;;;;;;;;;;;;23.00;65.34;99711.48;107601;1254;109305;-68
2023/07/26 00:06:35;;;;;;;;;;;;;;;22.95;65.47;99713.64;107575;1253;108742;-67
2023/07/26 00:09:03;;;;;;;;;;;;;;;22.97;65.89;99713.79;107587;1253;97896;-67
2023/07/26 00:11:31;;;;;;;;;;;;;;;22.96;65.37;99707.80;107661;1253;97733;-68
2023/07/26 00:13:59;;;;;;;;;;;;;;;22.93;65.45;99700.66;107642;1253;111958;-67
2023/07/26 00:16:28;;;;;;;;;;;;;;;22.89;65.72;99688.90;107602;1253;109546;-68
2023/07/26 00:18:56;;;;;;;;;;;;;;;22.84;65.66;99683.55;107530;1251;108197;-68
2023/07/26 00:21:24;;;;;;;;;;;;;;;22.81;65.48;99681.25;107479;1251;97825;-68
2023/07/26 00:23:53;;;;;;;;;;;;;;;22.78;65.88;99676.08;107524;1250;97896;-67
2023/07/26 00:26:22;;;;;;;;;;;;;;;22.77;65.87;99690.36;107687;1251;110799;-70
2023/07/26 00:28:50;;;;;;;;;;;;;;;22.77;66.41;99702.92;107526;1251;109669;-68
2023/07/26 00:31:18;;;;;;;;;;;;;;;22.80;66.69;99710.98;107488;1251;108541;-69
2023/07/26 00:33:47;;;;;;;;;;;;;;;22.83;66.24;99712.70;107519;1253;97810;-68
2023/07/26 00:36:15;;;;;;;;;;;;;;;22.83;65.95;99716.05;107587;1251;97794;-68
2023/07/26 00:38:43;;;;;;;;;;;;;;;22.81;66.33;99721.98;107508;1251;111581;-69
2023/07/26 00:41:12;;;;;;;;;;;;;;;22.79;66.11;99721.71;107527;1251;109403;-69
2023/07/26 00:43:40;;;;;;;;;;;;;;;22.76;66.10;99721.77;107563;1253;107337;-69
2023/07/26 00:46:08;;;;;;;;;;;;;;;22.76;66.59;99720.63;107604;1253;97813;-68
2023/07/26 00:48:37;;;;;;;;;;;;;;;22.78;66.53;99732.19;107657;1256;97935;-69
2023/07/26 00:51:05;;;;;;;;;;;;;;;22.79;66.30;99730.15;107673;1251;111841;-74
2023/07/26 00:53:34;;;;;;;;;;;;;;;22.80;66.82;99718.77;107557;1254;109263;-70
2023/07/26 00:56:03;;;;;;;;;;;;;;;22.80;67.10;99720.38;107621;1254;107503;-68
2023/07/26 00:58:32;;;;;;;;;;;;;;;22.80;67.25;99724.60;107638;1253;97810;-69
2023/07/26 01:01:00;;;;;;;;;;;;;;;22.78;66.88;99718.86;107539;1251;97941;-67
2023/07/26 01:03:28;;;;;;;;;;;;;;;22.76;66.93;99711.06;107526;1253;111772;-68
2023/07/26 01:05:56;;;;;;;;;;;;;;;22.75;67.06;99707.11;107474;1251;110233;-70
2023/07/26 01:08:27;;;;;;;;;;;;;;;22.74;67.39;99714.60;107596;1253;108036;-69
2023/07/26 01:10:58;;;;;;;;;;;;;;;22.74;67.73;99715.58;107645;1254;97986;-69
2023/07/26 01:13:32;;;;;;;;;;;;;;;22.70;67.58;99722.19;107572;1251;97714;-69
2023/07/26 01:16:01;;;;;;;;;;;;;;;22.66;68.25;99722.48;107514;1251;112021;-68
2023/07/26 01:18:30;;;;;;;;;;;;;;;22.62;68.14;99720.16;107549;1251;109671;-68
2023/07/26 01:20:59;;;;;;;;;;;;;;;22.62;68.16;99727.63;107627;1254;107781;-70
2023/07/26 01:23:28;;;;;;;;;;;;;;;22.64;68.42;99726.98;107601;1251;97834;-69
2023/07/26 01:25:56;;;;;;;;;;;;;;;22.66;68.21;99723.75;107483;1250;97688;-69
2023/07/26 01:28:24;;;;;;;;;;;;;;;22.65;68.22;99714.30;107481;1250;111821;-68
2023/07/26 01:30:53;;;;;;;;;;;;;;;22.64;68.49;99709.02;107649;1251;109579;-71
2023/07/26 01:33:22;;;;;;;;;;;;;;;22.64;68.11;99701.84;107620;1253;107628;-67
2023/07/26 01:35:51;;;;;;;;;;;;;;;22.68;68.14;99701.10;107614;1255;97691;-71
2023/07/26 01:38:20;;;;;;;;;;;;;;;22.71;67.89;99697.96;107497;1251;97703;-67
2023/07/26 01:40:49;;;;;;;;;;;;;;;22.72;67.67;99695.09;107618;1251;112243;-69
2023/07/26 01:43:17;;;;;;;;;;;;;;;22.69;67.65;99699.10;107642;1254;108633;-68
2023/07/26 01:45:45;;;;;;;;;;;;;;;22.67;67.25;99706.35;107457;1251;108087;-69
2023/07/26 01:48:14;;;;;;;;;;;;;;;22.67;67.19;99707.92;107646;1251;97887;-68
2023/07/26 01:50:42;;;;;;;;;;;;;;;22.65;67.61;99708.36;107498;1251;97777;-68
2023/07/26 01:53:11;;;;;;;;;;;;;;;22.64;67.61;99707.20;107437;1251;111939;-67
2023/07/26 01:55:40;;;;;;;;;;;;;;;22.62;67.49;99697.59;107492;1251;109673;-69
2023/07/26 01:58:08;;;;;;;;;;;;;;;22.63;67.63;99684.23;107697;1251;108129;-68
2023/07/26 02:00:36;;;;;;;;;;;;;;;22.63;67.34;99684.39;107589;1251;97819;-67
2023/07/26 02:03:04;;;;;;;;;;;;;;;22.65;67.38;99679.48;107457;1250;97735;-67
2023/07/26 02:05:33;;;;;;;;;;;;;;;22.66;67.44;99666.98;107640;1253;110946;-69
2023/07/26 02:08:01;;;;;;;;;;;;;;;22.66;67.35;99655.30;107615;1251;109657;-68
2023/07/26 02:10:30;;;;;;;;;;;;;;;22.68;67.14;99650.66;107469;1251;108552;-68
2023/07/26 02:12:59;;;;;;;;;;;;;;;22.69;67.14;99649.74;107425;1251;97856;-68
2023/07/26 02:15:27;;;;;;;;;;;;;;;22.71;67.04;99653.35;107490;1251;97903;-68
2023/07/26 02:17:55;;;;;;;;;;;;;;;22.70;67.03;99658.38;107464;1251;111305;-67
2023/07/26 02:20:24;;;;;;;;;;;;;;;22.70;67.01;99661.45;107455;1250;109142;-68
2023/07/26 02:22:52;;;;;;;;;;;;;;;22.70;66.65;99661.71;107449;1251;108193;-69
2023/07/26 02:25:20;;;;;;;;;;;;;;;22.68;66.55;99670.02;107518;1251;97856;-70
2023/07/26 02:27:48;;;;;;;;;;;;;;;22.67;66.92;99680.13;107505;1251;97813;-71
2023/07/26 02:30:17;;;;;;;;;;;;;;;22.67;67.09;99674.42;107663;1253;111842;-71
2023/07/26 02:32:46;;;;;;;;;;;;;;;22.67;66.89;99685.17;107599;1251;108723;-73
2023/07/26 02:35:14;;;;;;;;;;;;;;;22.68;66.77;99688.38;107496;1251;107766;-70
2023/07/26 02:37:42;;;;;;;;;;;;;;;22.68;66.59;99682.63;107472;1251;97916;-69
2023/07/26 02:40:11;;;;;;;;;;;;;;;22.69;66.44;99685.64;107536;1250;97800;-69
2023/07/26 02:42:40;;;;;;;;;;;;;;;22.64;66.77;99680.29;107526;1251;112090;-68
2023/07/26 02:45:09;;;;;;;;;;;;;;;22.58;66.79;99684.17;107600;1253;109565;-71
2023/07/26 02:47:37;;;;;;;;;;;;;;;22.53;67.38;99688.34;107577;1254;108663;-70
2023/07/26 02:50:05;;;;;;;;;;;;;;;22.46;67.13;99697.58;107589;1256;97893;-68
2023/07/26 02:52:34;;;;;;;;;;;;;;;22.43;67.19;99706.95;107528;1251;97825;-68
2023/07/26 02:55:03;;;;;;;;;;;;;;;22.41;69.13;99699.05;107553;1251;111321;-68
2023/07/26 02:57:31;;;;;;;;;;;;;;;22.35;71.90;99696.20;107477;1251;109648;-67
2023/07/26 02:59:59;;;;;;;;;;;;;;;22.23;70.81;99696.60;107483;1250;108269;-69
2023/07/26 03:02:28;;;;;;;;;;;;;;;22.19;70.64;99695.25;107548;1251;97822;-71
2023/07/26 03:04:56;;;;;;;;;;;;;;;22.12;70.62;99697.67;107597;1251;97691;-70
2023/07/26 03:07:24;;;;;;;;;;;;;;;22.05;70.68;99706.94;107651;1251;112576;-69
2023/07/26 03:09:52;;;;;;;;;;;;;;;22.01;70.84;99705.80;107568;1254;109966;-70
2023/07/26 03:12:21;;;;;;;;;;;;;;;21.98;71.09;99705.06;107602;1251;107543;-70
2023/07/26 03:14:49;;;;;;;;;;;;;;;21.96;71.05;99698.45;107416;1254;97826;-71
2023/07/26 03:17:17;;;;;;;;;;;;;;;21.94;71.28;99690.98;107658;1253;97816;-69
2023/07/26 03:19:50;;;;;;;;;;;;;;;21.94;71.40;99689.16;107499;1251;110972;-72
2023/07/26 03:22:18;;;;;;;;;;;;;;;21.97;71.76;99687.26;107633;1251;109258;-70
2023/07/26 03:24:47;;;;;;;;;;;;;;;22.01;72.25;99691.35;107513;1251;108256;-69
2023/07/26 03:27:15;;;;;;;;;;;;;;;22.04;71.82;99692.73;107460;1251;97899;-69
2023/07/26 03:29:44;;;;;;;;;;;;;;;22.05;71.99;99690.45;107611;1251;97979;-70
2023/07/26 03:32:12;;;;;;;;;;;;;;;22.05;71.97;99686.13;107496;1257;112156;-70
2023/07/26 03:34:41;;;;;;;;;;;;;;;22.07;71.87;99681.02;107576;1251;109244;-69
2023/07/26 03:37:10;;;;;;;;;;;;;;;22.09;71.71;99671.75;107600;1251;108284;-70
2023/07/26 03:39:38;;;;;;;;;;;;;;;22.13;71.88;99665.87;107554;1250;97665;-70
2023/07/26 03:42:07;;;;;;;;;;;;;;;22.17;71.98;99667.94;107637;1251;97727;-70
2023/07/26 03:44:35;;;;;;;;;;;;;;;22.21;71.98;99667.47;107592;1251;111981;-70
2023/07/26 03:47:04;;;;;;;;;;;;;;;22.25;72.00;99665.25;107570;1251;109361;-69
2023/07/26 03:49:33;;;;;;;;;;;;;;;22.30;71.88;99666.84;107632;1251;107437;-70
2023/07/26 03:52:02;;;;;;;;;;;;;;;22.34;71.60;99670.21;107552;1250;98467;-68
2023/07/26 03:54:30;;;;;;;;;;;;;;;22.38;71.62;99663.23;107585;1251;97832;-70
2023/07/26 03:57:03;;;;;;;;;;;;;;;22.39;71.10;99661.35;107618;1254;109852;-69
2023/07/26 03:59:31;;;;;;;;;;;;;;;22.41;70.99;99664.70;107698;1251;109644;-70
2023/07/26 04:01:59;;;;;;;;;;;;;;;22.43;71.11;99660.84;107512;1251;108129;-69
2023/07/26 04:04:27;;;;;;;;;;;;;;;22.45;71.05;99660.34;107629;1251;97911;-70
2023/07/26 04:06:56;;;;;;;;;;;;;;;22.50;71.22;99661.17;107547;1250;97841;-69
2023/07/26 04:09:24;;;;;;;;;;;;;;;22.57;71.12;99659.04;107594;1250;112200;-71
2023/07/26 04:11:58;;;;;;;;;;;;;;;22.67;71.27;99658.48;107551;1251;109653;-72
2023/07/26 04:14:26;;;;;;;;;;;;;;;22.79;71.23;99663.11;107536;1250;108662;-71
2023/07/26 04:16:54;;;;;;;;;;;;;;;22.89;70.80;99665.80;107518;1251;97720;-71
2023/07/26 04:19:22;;;;;;;;;;;;;;;23.01;70.66;99669.32;107560;1251;97799;-72
2023/07/26 04:21:50;;;;;;;;;;;;;;;23.12;70.61;99661.30;107577;1250;110755;-72
2023/07/26 04:24:19;;;;;;;;;;;;;;;23.22;70.61;99656.61;107557;1251;109188;-72
2023/07/26 04:26:47;;;;;;;;;;;;;;;23.27;70.30;99658.57;107557;1251;109071;-70
2023/07/26 04:29:15;;;;;;;;;;;;;;;23.30;70.02;99655.50;107474;1254;97822;-68
2023/07/26 04:31:43;;;;;;;;;;;;;;;23.31;69.59;99652.94;107625;1253;97707;-70
2023/07/26 04:34:12;;;;;;;;;;;;;;;23.32;69.31;99652.52;107574;1253;111590;-69
2023/07/26 04:36:41;;;;;;;;;;;;;;;23.34;69.14;99653.04;107634;1251;109744;-70
2023/07/26 04:39:09;;;;;;;;;;;;;;;23.35;68.78;99645.33;107551;1251;107442;-71
2023/07/26 04:41:38;;;;;;;;;;;;;;;23.39;68.51;99644.19;107620;1251;97800;-69
2023/07/26 04:44:06;;;;;;;;;;;;;;;23.46;68.48;99646.15;107623;1253;97832;-70
2023/07/26 04:46:35;;;;;;;;;;;;;;;23.51;68.14;99643.10;107636;1254;111218;-69
2023/07/26 04:49:04;;;;;;;;;;;;;;;23.55;67.90;99644.00;107598;1251;109659;-70
2023/07/26 04:51:32;;;;;;;;;;;;;;;23.61;67.87;99649.80;107509;1252;108250;-69
2023/07/26 04:54:01;;;;;;;;;;;;;;;23.68;67.76;99652.92;107561;1250;97829;-71
2023/07/26 04:56:31;;;;;;;;;;;;;;;23.71;67.50;99653.30;107542;1251;97692;-69
2023/07/26 04:59:00;;;;;;;;;;;;;;;23.73;67.20;99654.34;107543;1254;112268;-68
2023/07/26 05:01:28;;;;;;;;;;;;;;;23.77;66.98;99655.16;107543;1251;109735;-68
2023/07/26 05:03:56;;;;;;;;;;;;;;;23.83;66.81;99656.67;107486;1251;106722;-70
2023/07/26 05:06:25;;;;;;;;;;;;;;;23.89;66.88;99658.52;107523;1251;97914;-69
2023/07/26 05:08:53;;;;;;;;;;;;;;;23.98;66.53;99653.56;107621;1254;97803;-68
2023/07/26 05:11:22;;;;;;;;;;;;;;;24.01;66.06;99649.02;107523;1251;111812;-69
2023/07/26 05:13:51;;;;;;;;;;;;;;;24.02;65.71;99646.42;107508;1250;110132;-67
2023/07/26 05:16:19;;;;;;;;;;;;;;;24.03;65.54;99647.88;107564;1254;108250;-68
2023/07/26 05:18:47;;;;;;;;;;;;;;;24.08;65.75;99642.84;107484;1254;98442;-69
2023/07/26 05:21:16;;;;;;;;;;;;;;;24.14;65.40;99644.51;107582;1252;97810;-67
2023/07/26 05:23:44;;;;;;;;;;;;;;;24.20;65.31;99643.44;107574;1253;111799;-68
2023/07/26 05:26:12;;;;;;;;;;;;;;;24.28;65.12;99639.63;107631;1255;109349;-69
2023/07/26 05:28:40;;;;;;;;;;;;;;;24.33;65.01;99635.59;107593;1255;107596;-66
2023/07/26 05:31:09;;;;;;;;;;;;;;;24.38;64.87;99633.93;107573;1251;97721;-67
2023/07/26 05:33:37;;;;;;;;;;;;;;;24.44;64.62;99630.59;107639;1251;98021;-68
2023/07/26 05:36:06;;;;;;;;;;;;;;;24.49;64.58;99641.48;107674;1251;111858;-66
2023/07/26 05:38:35;;;;;;;;;;;;;;;24.55;64.50;99653.98;107522;1254;110550;-66
2023/07/26 05:41:04;;;;;;;;;;;;;;;24.59;64.11;99650.89;107579;1253;108697;-66
2023/07/26 05:43:33;;;;;;;;;;;;;;;24.64;64.00;99644.41;107598;1251;97841;-67
2023/07/26 05:46:02;;;;;;;;;;;;;;;24.69;63.98;99634.10;107603;1254;97809;-67
2023/07/26 05:48:30;;;;;;;;;;;;;;;24.74;63.89;99624.54;107652;1253;111500;-66
2023/07/26 05:50:58;;;;;;;;;;;;;;;24.77;63.70;99621.54;107548;1251;109892;-67
2023/07/26 05:53:27;;;;;;;;;;;;;;;24.79;63.85;99620.47;107634;1251;108884;-67
2023/07/26 05:55:55;;;;;;;;;;;;;;;24.78;63.88;99626.23;107648;1251;97821;-69
2023/07/26 05:58:23;;;;;;;;;;;;;;;24.78;63.79;99632.44;107628;1251;97797;-67
2023/07/26 06:00:51;;;;;;;;;;;;;;;24.75;63.23;99635.88;107594;1251;112392;-69
2023/07/26 06:03:19;;;;;;;;;;;;;;;24.71;62.87;99624.89;107548;1251;109178;-67
2023/07/26 06:05:47;;;;;;;;;;;;;;;24.66;62.80;99625.42;107514;1251;107555;-70
2023/07/26 06:08:16;;;;;;;;;;;;;;;24.69;63.21;99626.78;107642;1251;97854;-67
2023/07/26 06:10:44;;;;;;;;;;;;;;;24.74;63.40;99628.89;107638;1253;97825;-69
2023/07/26 06:13:12;;;;;;;;;;;;;;;24.79;62.94;99628.81;107617;1254;112021;-68
2023/07/26 06:15:40;;;;;;;;;;;;;;;24.81;62.87;99634.80;107593;1254;109729;-68
2023/07/26 06:18:09;;;;;;;;;;;;;;;24.86;62.69;99639.07;107614;1251;108259;-68
2023/07/26 06:20:37;;;;;;;;;;;;;;;24.90;62.43;99647.09;107534;1251;97819;-68
2023/07/26 06:23:08;;;;;;;;;;;;;;;24.96;62.11;99651.67;107538;1250;97809;-68
2023/07/26 06:25:39;;;;;;;;;;;;;;;24.99;61.55;99659.90;107573;1251;110125;-68
2023/07/26 06:28:07;;;;;;;;;;;;;;;25.03;61.49;99666.48;107543;1254;109724;-67
2023/07/26 06:30:36;;;;;;;;;;;;;;;25.08;61.39;99674.34;107511;1254;108416;-67
2023/07/26 06:33:04;;;;;;;;;;;;;;;25.14;61.44;99682.05;107572;1251;97844;-65
2023/07/26 06:35:32;;;;;;;;;;;;;;;25.21;61.54;99691.54;107583;1251;97787;-67
2023/07/26 06:38:00;;;;;;;;;;;;;;;25.30;61.24;99692.89;107550;1251;112322;-68
2023/07/26 06:40:29;;;;;;;;;;;;;;;25.39;60.93;99694.45;107592;1250;109974;-66
2023/07/26 06:42:57;;;;;;;;;;;;;;;25.47;61.19;99699.41;107554;1251;107383;-68
2023/07/26 06:45:25;;;;;;;;;;;;;;;25.55;61.20;99704.27;107529;1253;97797;-69
2023/07/26 06:47:54;;;;;;;;;;;;;;;25.60;60.83;99702.93;107601;1256;97815;-69
2023/07/26 06:50:23;;;;;;;;;;;;;;;25.70;60.73;99712.21;107619;1250;111118;-70
2023/07/26 06:52:51;;;;;;;;;;;;;;;25.80;60.64;99716.81;107599;1251;109695;-70
2023/07/26 06:55:19;;;;;;;;;;;;;;;25.89;60.50;99725.86;107531;1251;107874;-68
2023/07/26 06:57:47;;;;;;;;;;;;;;;26.02;60.07;99733.56;107510;1251;97812;-69
2023/07/26 07:00:16;;;;;;;;;;;;;;;26.12;59.85;99747.48;107534;1251;97925;-70
2023/07/26 07:02:44;;;;;;;;;;;;;;;26.25;60.01;99752.32;107867;1253;112976;-69
2023/07/26 07:05:14;;;;;;;;;;;;;;;26.43;59.81;99759.71;107803;1250;109232;-68
2023/07/26 07:07:42;;;;;;;;;;;;;;;26.60;59.40;99759.91;107855;1251;110583;-69
2023/07/26 07:10:10;;;;;;;;;;;;;;;26.69;59.48;99764.25;107797;1253;97924;-68
2023/07/26 07:12:38;;;;;;;;;;;;;;;26.74;58.75;99760.14;107891;1253;97727;-68
2023/07/26 07:15:07;;;;;;;;;;;;;;;26.79;58.73;99764.00;107605;1253;112121;-68
2023/07/26 07:17:35;;;;;;;;;;;;;;;26.81;58.71;99761.37;107842;1251;109350;-67
2023/07/26 07:20:05;;;;;;;;;;;;;;;26.84;58.47;99743.67;107834;1251;108136;-70
2023/07/26 07:22:33;;;;;;;;;;;;;;;26.82;58.82;99739.58;107737;1250;97814;-70
2023/07/26 07:25:02;;;;;;;;;;;;;;;26.82;58.75;99749.34;107791;1250;97708;-68
2023/07/26 07:27:30;;;;;;;;;;;;;;;26.83;58.67;99749.63;107887;1253;111445;-70
2023/07/26 07:29:59;;;;;;;;;;;;;;;26.83;58.49;99751.45;107899;1251;109512;-69
2023/07/26 07:32:28;;;;;;;;;;;;;;;26.87;58.64;99750.20;107869;1250;107320;-70
2023/07/26 07:34:56;;;;;;;;;;;;;;;26.95;58.26;99752.93;107616;1251;97791;-69
2023/07/26 07:37:26;;;;;;;;;;;;;;;26.99;57.78;99744.83;107748;1251;97845;-69
2023/07/26 07:39:54;;;;;;;;;;;;;;;27.01;57.21;99736.55;107660;1253;111265;-69
2023/07/26 07:42:23;;;;;;;;;;;;;;;27.04;57.59;99731.48;107567;1251;110013;-69
2023/07/26 07:44:51;;;;;;;;;;;;;;;27.11;57.27;99729.29;107555;1251;108191;-70
2023/07/26 07:47:19;;;;;;;;;;;;;;;27.24;56.07;99732.53;107535;1250;97816;-67
2023/07/26 07:49:47;;;;;;;;;;;;;;;27.32;55.96;99734.52;107752;1250;97938;-70
2023/07/26 07:52:16;;;;;;;;;;;;;;;27.39;56.37;99729.68;107952;1250;112038;-68
2023/07/26 07:54:45;;;;;;;;;;;;;;;27.44;56.92;99724.19;107716;1249;109217;-70
2023/07/26 07:57:13;;;;;;;;;;;;;;;27.47;56.84;99722.77;107561;1251;108147;-70
2023/07/26 07:59:44;;;;;;;;;;;;;;;27.44;56.66;99728.55;107668;1250;98020;-71
2023/07/26 08:02:12;;;;;;;;;;;;;;;27.37;56.47;99729.95;107658;1255;97838;-70
2023/07/26 08:04:41;;;;;;;;;;;;;;;27.42;56.48;99727.42;107205;1250;688859;-74
2023/07/26 08:07:09;;;;;;;;;;;;;;;27.54;56.11;99716.58;107873;1251;109754;-68
2023/07/26 08:09:37;;;;;;;;;;;;;;;27.71;55.73;99713.27;107881;1251;108244;-69
2023/07/26 08:12:06;;;;;;;;;;;;;;;27.89;54.30;99718.24;107811;1249;97800;-69
2023/07/26 08:14:34;;;;;;;;;;;;;;;28.06;54.13;99716.13;107834;1253;97988;-70
2023/07/26 08:17:04;;;;;;;;;;;;;;;28.19;53.68;99719.55;107902;1250;111834;-70
2023/07/26 08:19:32;;;;;;;;;;;;;;;28.33;53.70;99718.86;107894;1250;109726;-70
2023/07/26 08:22:01;;;;;;;;;;;;;;;28.44;52.71;99716.11;107852;1251;108165;-69
2023/07/26 08:24:30;;;;;;;;;;;;;;;28.52;52.34;99710.89;107844;1252;97813;-69
2023/07/26 08:26:59;;;;;;;;;;;;;;;28.52;51.62;99709.10;107872;1249;97866;-69
2023/07/26 08:29:27;;;;;;;;;;;;;;;28.41;51.91;99704.00;107886;1250;112412;-68
2023/07/26 08:31:55;;;;;;;;;;;;;;;28.32;52.30;99700.77;107881;1250;109331;-69
2023/07/26 08:34:23;;;;;;;;;;;;;;;28.30;52.09;99704.75;107806;1251;108613;-71
2023/07/26 08:36:51;;;;;;;;;;;;;;;28.22;52.34;99701.34;107853;1251;97832;-68
2023/07/26 08:39:20;;;;;;;;;;;;;;;28.21;52.66;99703.95;107727;1251;97797;-68
2023/07/26 08:42:03;;;;;;;;;;;;;;;28.32;52.62;99702.02;107584;1253;111524;-69
2023/07/26 08:44:32;;;;;;;;;;;;;;;28.39;52.50;99697.64;107673;1253;110241;-71
2023/07/26 08:47:03;;;;;;;;;;;;;;;28.45;52.04;99695.47;107835;1251;108233;-70
2023/07/26 08:49:32;;;;;;;;;;;;;;;28.53;51.64;99697.09;107801;1251;97908;-70
2023/07/26 08:52:01;;;;;;;;;;;;;;;28.65;51.62;99697.00;107883;1250;97816;-69
2023/07/26 08:54:30;;;;;;;;;;;;;;;28.83;51.35;99693.12;107892;1251;112500;-69
2023/07/26 08:56:58;;;;;;;;;;;;;;;29.00;50.73;99694.80;107892;1251;110223;-69
2023/07/26 08:59:27;;;;;;;;;;;;;;;29.13;50.22;99699.93;107857;1250;107779;-69
2023/07/26 09:01:56;;;;;;;;;;;;;;;29.25;49.53;99696.91;107877;1251;97815;-68
2023/07/26 09:04:37;;;;;;;;;;;;;;;29.41;48.73;99692.90;107706;1249;97710;-68
2023/07/26 09:07:06;;;;;;;;;;;;;;;29.45;48.65;99690.20;107620;1249;111898;-68
2023/07/26 09:09:35;;;;;;;;;;;;;;;29.48;49.08;99686.90;107541;1253;109621;-69
2023/07/26 09:12:04;;;;;;;;;;;;;;;29.55;48.99;99684.48;107579;1251;108312;-68
2023/07/26 09:14:33;;;;;;;;;;;;;;;29.67;48.91;99682.09;107544;1251;97805;-69
2023/07/26 09:17:03;;;;;;;;;;;;;;;29.81;49.06;99686.73;107564;1253;98588;-69
2023/07/26 09:19:33;;;;;;;;;;;;;;;30.00;47.97;99686.42;107744;1253;112263;-68
2023/07/26 09:22:02;;;;;;;;;;;;;;;30.10;47.15;99687.77;107881;1249;109543;-68
2023/07/26 09:24:33;;;;;;;;;;;;;;;30.22;47.02;99681.98;107754;1251;108613;-69
2023/07/26 09:27:06;;;;;;;;;;;;;;;30.28;46.78;99678.36;107890;1251;97892;-68
2023/07/26 09:29:35;;;;;;;;;;;;;;;30.40;46.89;99676.21;107708;1251;97810;-68
2023/07/26 09:32:07;;;;;;;;;;;;;;;30.68;45.91;99667.23;107574;1251;113453;-70
2023/07/26 09:34:39;;;;;;;;;;;;;;;30.86;45.41;99666.21;107795;1251;109674;-69
2023/07/26 09:37:18;;;;;;;;;;;;;;;31.14;45.83;99672.60;107736;1251;106394;-69
2023/07/26 09:39:46;;;;;;;;;;;;;;;31.45;43.99;99659.67;107631;1251;97883;-69
2023/07/26 09:42:14;;;;;;;;;;;;;;;31.55;44.36;99656.40;107577;1250;97852;-67
2023/07/26 09:44:45;;;;;;;;;;;;;;;31.93;44.23;99651.64;107563;1251;110839;-67
2023/07/26 09:47:15;;;;;;;;;;;;;;;32.21;43.78;99654.10;107540;1251;109732;-70
2023/07/26 09:49:49;;;;;;;;;;;;;;;32.26;43.17;99657.19;107769;1253;107364;-72
2023/07/26 09:52:42;;;;;;;;;;;;;;;32.28;42.82;99666.56;107856;1250;97704;-71
2023/07/26 09:55:11;;;;;;;;;;;;;;;32.39;41.93;99660.71;107685;1251;97724;-68
2023/07/26 09:57:50;;;;;;;;;;;;;;;32.46;42.71;99656.34;107657;1253;112246;-67
2023/07/26 10:00:19;;;;;;;;;;;;;;;32.62;42.18;99649.43;107792;1251;109654;-68
2023/07/26 10:03:07;;;;;;;;;;;;;;;32.83;42.25;99641.27;107875;1253;108552;-68
2023/07/26 10:05:43;;;;;;;;;;;;;;;33.08;40.75;99643.42;107535;1253;97928;-67
2023/07/26 10:08:12;;;;;;;;;;;;;;;33.00;40.34;99646.89;107583;1251;97717;-68
2023/07/26 10:10:45;;;;;;;;;;;;;;;32.84;41.28;99640.17;107569;1251;111700;-68
2023/07/26 10:13:15;;;;;;;;;;;;;;;32.87;40.41;99633.14;107590;1251;109705;-69
2023/07/26 10:15:47;;;;;;;;;;;;;;;32.73;41.24;99635.61;107543;1251;108841;-69
2023/07/26 10:18:19;;;;;;;;;;;;;;;33.03;41.72;99632.06;107588;1250;97822;-67
2023/07/26 10:20:48;;;;;;;;;;;;;;;33.40;41.32;99634.34;107584;1250;97828;-68
2023/07/26 10:23:16;;;;;;;;;;;;;;;34.01;40.54;99633.42;107828;1251;112349;-67
2023/07/26 10:25:44;;;;;;;;;;;;;;;34.66;39.63;99632.23;107913;1249;109185;-67
2023/07/26 10:28:14;;;;;;;;;;;;;;;34.81;38.99;99633.41;107864;1249;108314;-67
2023/07/26 10:30:43;;;;;;;;;;;;;;;34.67;38.12;99632.60;107727;1250;97807;-70
2023/07/26 10:33:13;;;;;;;;;;;;;;;34.21;38.49;99632.17;107582;1251;97697;-69
2023/07/26 10:35:42;;;;;;;;;;;;;;;33.96;39.31;99629.12;107889;1251;110784;-68
2023/07/26 10:38:15;;;;;;;;;;;;;;;33.89;39.73;99628.46;107920;1251;109402;-67
2023/07/26 10:40:44;;;;;;;;;;;;;;;33.85;39.68;99630.30;107625;1251;108436;-69
2023/07/26 10:43:21;;;;;;;;;;;;;;;33.74;39.91;99635.77;107535;1251;97839;-69
2023/07/26 10:45:52;;;;;;;;;;;;;;;33.71;40.34;99636.55;107632;1251;97729;-70
2023/07/26 10:48:28;;;;;;;;;;;;;;;33.61;39.71;99632.54;107699;1251;111578;-67
2023/07/26 10:50:57;;;;;;;;;;;;;;;33.96;40.28;99627.38;107771;1251;110203;-68
2023/07/26 10:53:29;;;;;;;;;;;;;;;34.47;40.04;99625.66;107856;1251;108264;-69
2023/07/26 10:56:08;;;;;;;;;;;;;;;34.57;38.81;99621.02;107903;1251;97892;-68
2023/07/26 10:58:36;;;;;;;;;;;;;;;34.43;39.11;99622.27;107720;1251;97837;-68
2023/07/26 11:01:04;;;;;;;;;;;;;;;34.34;39.30;99620.95;107873;1251;112187;-67
2023/07/26 11:03:32;;;;;;;;;;;;;;;34.36;38.65;99616.76;107855;1251;109853;-69
2023/07/26 11:06:01;;;;;;;;;;;;;;;34.40;38.06;99619.11;107589;1251;108446;-68
2023/07/26 11:08:42;;;;;;;;;;;;;;;34.43;37.79;99620.10;107560;1251;97811;-67
2023/07/26 11:11:11;;;;;;;;;;;;;;;34.29;38.03;99616.33;107640;1251;97932;-68
2023/07/26 11:13:39;;;;;;;;;;;;;;;34.27;38.54;99609.59;107623;1251;111901;-69
2023/07/26 11:16:07;;;;;;;;;;;;;;;34.64;38.27;99596.56;107861;1251;109136;-68
2023/07/26 11:18:46;;;;;;;;;;;;;;;35.23;37.42;99594.27;107871;1250;108174;-69
2023/07/26 11:21:15;;;;;;;;;;;;;;;35.45;37.35;99586.23;107890;1251;97818;-67
2023/07/26 11:23:49;;;;;;;;;;;;;;;35.53;36.69;99572.20;107927;1251;97910;-68
2023/07/26 11:26:18;;;;;;;;;;;;;;;35.66;36.03;99568.58;107881;1250;111808;-70
2023/07/26 11:28:46;;;;;;;;;;;;;;;36.16;35.83;99571.36;107837;1251;110892;-70
2023/07/26 11:31:17;;;;;;;;;;;;;;;36.92;35.96;99563.96;107577;1251;107953;-68
2023/07/26 11:33:47;;;;;;;;;;;;;;;38.00;34.78;99561.95;107661;1251;97729;-67
2023/07/26 11:36:20;;;;;;;;;;;;;;;38.17;32.61;99551.67;107912;1251;97707;-68
2023/07/26 11:38:49;;;;;;;;;;;;;;;37.63;33.03;99541.16;107887;1251;111915;-68
2023/07/26 11:41:18;;;;;;;;;;;;;;;37.70;33.45;99534.20;107864;1251;108277;-69
2023/07/26 11:43:46;;;;;;;;;;;;;;;38.35;32.80;99533.15;107862;1253;107335;-68
2023/07/26 11:46:24;;;;;;;;;;;;;;;39.00;31.53;99530.92;107630;1250;97806;-68
2023/07/26 11:48:53;;;;;;;;;;;;;;;39.31;30.65;99521.67;107833;1250;97806;-68
2023/07/26 11:51:22;;;;;;;;;;;;;;;39.46;31.19;99516.35;107894;1251;111277;-69
2023/07/26 11:53:53;;;;;;;;;;;;;;;39.59;31.38;99512.73;107848;1251;110017;-67
2023/07/26 11:56:29;;;;;;;;;;;;;;;40.04;30.97;99507.56;107550;1251;108096;-67
2023/07/26 11:58:58;;;;;;;;;;;;;;;40.51;30.16;99504.34;107605;1250;97835;-67
2023/07/26 12:01:26;;;;;;;;;;;;;;;40.85;28.93;99499.73;107915;1251;97844;-71
2023/07/26 12:03:54;;;;;;;;;;;;;;;40.69;28.91;99492.08;107869;1253;111110;-71
2023/07/26 12:06:33;;;;;;;;;;;;;;;40.14;29.22;99490.48;107867;1250;108353;-68
2023/07/26 12:09:03;;;;;;;;;;;;;;;39.34;30.24;99501.09;107826;1251;107954;-67
2023/07/26 12:11:31;;;;;;;;;;;;;;;38.75;30.68;99505.93;107811;1250;97922;-67
2023/07/26 12:14:00;;;;;;;;;;;;;;;38.10;31.59;99516.08;107921;1251;98443;-68
2023/07/26 12:16:28;;;;;;;;;;;;;;;37.60;32.17;99515.20;107598;1253;111797;-69
2023/07/26 12:19:00;;;;;;;;;;;;;;;37.15;33.21;99511.40;107628;1249;109000;-68
2023/07/26 12:21:29;;;;;;;;;;;;;;;36.87;33.60;99513.59;107608;1250;108754;-67
2023/07/26 12:23:59;;;;;;;;;;;;;;;36.76;34.00;99508.64;107579;1251;97823;-67
2023/07/26 12:26:32;;;;;;;;;;;;;;;37.01;34.42;99499.05;107876;1251;97691;-68
2023/07/26 12:29:03;;;;;;;;;;;;;;;36.96;33.86;99486.80;107919;1251;113024;-68
2023/07/26 12:31:33;;;;;;;;;;;;;;;36.66;33.85;99485.02;107906;1251;108967;-68
2023/07/26 12:34:03;;;;;;;;;;;;;;;36.04;34.74;99477.16;107890;1251;108126;-67
2023/07/26 12:36:41;;;;;;;;;;;;;;;35.50;35.07;99488.39;107878;1251;97884;-68
2023/07/26 12:39:11;;;;;;;;;;;;;;;35.06;35.90;99504.60;107791;1251;96590;-67
2023/07/26 12:41:40;;;;;;;;;;;;;;;35.01;36.82;99516.41;107593;1251;111423;-68